createdAt,value
2023-05-09T00:01:54.016Z,100.00
2023-05-09T00:04:22.379Z,100.00
2023-05-09T00:06:50.371Z,100.00
2023-05-09T00:09:18.803Z,100.00
2023-05-09T00:11:46.740Z,100.00
2023-05-09T00:14:15.225Z,100.00
2023-05-09T00:16:43.209Z,100.00
2023-05-09T00:19:11.265Z,100.00
2023-05-09T00:21:39.222Z,100.00
2023-05-09T00:24:07.630Z,100.00
2023-05-09T00:26:35.585Z,100.00
2023-05-09T00:29:03.562Z,100.00
2023-05-09T00:31:31.511Z,100.00
2023-05-09T00:33:59.529Z,100.00
2023-05-09T00:36:27.382Z,100.00
2023-05-09T00:38:55.258Z,100.00
2023-05-09T00:41:23.297Z,100.00
2023-05-09T00:43:51.118Z,100.00
2023-05-09T00:46:19.067Z,100.00
2023-05-09T00:48:47.921Z,100.00
2023-05-09T00:51:16.758Z,100.00
2023-05-09T00:53:44.849Z,100.00
2023-05-09T00:56:13.479Z,100.00
2023-05-09T00:58:41.525Z,100.00
2023-05-09T01:01:09.864Z,100.00
2023-05-09T01:03:40.372Z,100.00
2023-05-09T01:06:42.482Z,100.00
2023-05-09T01:09:32.466Z,100.00
2023-05-09T01:12:14.831Z,100.00
2023-05-09T01:15:05.668Z,100.00
2023-05-09T01:18:08.290Z,100.00
2023-05-09T01:20:47.917Z,100.00
2023-05-09T01:23:34.634Z,100.00
2023-05-09T01:26:02.760Z,100.00
2023-05-09T01:28:45.144Z,100.00
2023-05-09T01:31:14.228Z,100.00
2023-05-09T01:33:47.201Z,100.00
2023-05-09T01:36:18.588Z,100.00
2023-05-09T01:38:51.501Z,100.00
2023-05-09T01:41:20.587Z,100.00
2023-05-09T01:43:50.892Z,100.00
2023-05-09T01:46:20.692Z,100.00
2023-05-09T01:48:51.718Z,100.00
2023-05-09T01:51:21.953Z,100.00
2023-05-09T01:53:51.797Z,100.00
2023-05-09T01:56:20.472Z,100.00
2023-05-09T01:58:52.513Z,100.00
2023-05-09T02:01:21.206Z,100.00
2023-05-09T02:03:53.732Z,100.00
2023-05-09T02:06:23.562Z,100.00
2023-05-09T02:08:52.419Z,100.00
2023-05-09T02:11:20.276Z,100.00
2023-05-09T02:13:48.275Z,100.00
2023-05-09T02:16:16.640Z,100.00
2023-05-09T02:18:44.522Z,100.00
2023-05-09T02:21:13.212Z,100.00
2023-05-09T02:23:41.248Z,100.00
2023-05-09T02:26:09.575Z,100.00
2023-05-09T02:28:39.652Z,100.00
2023-05-09T02:31:09.652Z,100.00
2023-05-09T02:33:39.324Z,100.00
2023-05-09T02:36:07.802Z,100.00
2023-05-09T02:38:37.248Z,100.00
2023-05-09T02:41:05.174Z,100.00
2023-05-09T02:43:33.051Z,100.00
2023-05-09T02:46:00.957Z,100.00
2023-05-09T02:48:28.805Z,100.00
2023-05-09T02:50:56.705Z,100.00
2023-05-09T02:53:24.636Z,100.00
2023-05-09T02:55:52.672Z,100.00
2023-05-09T02:58:21.202Z,100.00
2023-05-09T03:00:49.135Z,100.00
2023-05-09T03:03:19.268Z,100.00
2023-05-09T03:05:47.720Z,100.00
2023-05-09T03:08:15.714Z,100.00
2023-05-09T03:10:43.575Z,100.00
2023-05-09T03:13:12.193Z,100.00
2023-05-09T03:15:40.183Z,100.00
2023-05-09T03:18:08.130Z,100.00
2023-05-09T03:20:36.045Z,100.00
2023-05-09T03:23:03.981Z,100.00
2023-05-09T03:25:31.894Z,100.00
2023-05-09T03:27:59.754Z,100.00
2023-05-09T03:30:28.481Z,100.00
2023-05-09T03:32:56.444Z,100.00
2023-05-09T03:35:24.500Z,100.00
2023-05-09T03:37:52.348Z,100.00
2023-05-09T03:40:20.289Z,100.00
2023-05-09T03:42:48.386Z,100.00
2023-05-09T03:45:16.472Z,100.00
2023-05-09T03:47:44.570Z,100.00
2023-05-09T03:50:12.577Z,100.00
2023-05-09T03:52:40.506Z,100.00
2023-05-09T03:55:08.974Z,100.00
2023-05-09T03:57:37.238Z,100.00
2023-05-09T04:00:09.338Z,100.00
2023-05-09T04:02:37.635Z,100.00
2023-05-09T04:05:06.411Z,100.00
2023-05-09T04:07:34.681Z,100.00
2023-05-09T04:10:02.599Z,100.00
2023-05-09T04:12:30.458Z,100.00
2023-05-09T04:14:58.362Z,100.00
2023-05-09T04:17:26.395Z,100.00
2023-05-09T04:19:54.373Z,100.00
2023-05-09T04:22:22.428Z,100.00
2023-05-09T04:24:50.352Z,100.00
2023-05-09T04:27:18.277Z,100.00
2023-05-09T04:29:46.181Z,100.00
2023-05-09T04:32:14.153Z,100.00
2023-05-09T04:34:42.160Z,100.00
2023-05-09T04:37:10.405Z,100.00
2023-05-09T04:39:38.331Z,100.00
2023-05-09T04:42:06.764Z,100.00
2023-05-09T04:44:35.043Z,100.00
2023-05-09T04:47:03.071Z,100.00
2023-05-09T04:49:31.016Z,100.00
2023-05-09T04:51:58.937Z,100.00
2023-05-09T04:54:27.468Z,100.00
2023-05-09T04:57:03.148Z,100.00
2023-05-09T04:59:31.264Z,100.00
2023-05-09T05:01:59.328Z,100.00
2023-05-09T05:04:27.318Z,100.00
2023-05-09T05:06:55.387Z,100.00
2023-05-09T05:09:23.712Z,100.00
2023-05-09T05:11:59.925Z,100.00
2023-05-09T05:14:29.851Z,100.00
2023-05-09T05:16:57.741Z,100.00
2023-05-09T05:19:25.711Z,100.00
2023-05-09T05:21:53.633Z,100.00
2023-05-09T05:24:21.584Z,100.00
2023-05-09T05:26:49.608Z,100.00
2023-05-09T05:29:17.640Z,100.00
2023-05-09T05:31:45.535Z,100.00
2023-05-09T05:34:13.502Z,100.00
2023-05-09T05:36:41.365Z,100.00
2023-05-09T05:39:09.321Z,100.00
2023-05-09T05:41:37.163Z,100.00
2023-05-09T05:44:05.191Z,100.00
2023-05-09T05:46:33.042Z,100.00
2023-05-09T05:49:00.934Z,100.00
2023-05-09T05:51:28.888Z,100.00
2023-05-09T05:53:57.114Z,100.00
2023-05-09T05:56:25.148Z,100.00
2023-05-09T05:58:53.010Z,100.00
2023-05-09T06:01:21.120Z,100.00
2023-05-09T06:03:51.124Z,100.00
2023-05-09T06:06:19.046Z,100.00
2023-05-09T06:08:47.332Z,100.00
2023-05-09T06:11:15.679Z,100.00
2023-05-09T06:13:43.756Z,100.00
2023-05-09T06:16:19.546Z,100.00
2023-05-09T06:18:49.055Z,100.00
2023-05-09T06:21:17.033Z,100.00
2023-05-09T06:24:01.521Z,100.00
2023-05-09T06:26:32.854Z,100.00
2023-05-09T06:29:00.954Z,100.00
2023-05-09T06:31:29.002Z,100.00
2023-05-09T06:33:57.116Z,100.00
2023-05-09T06:36:25.006Z,100.00
2023-05-09T06:38:52.986Z,100.00
2023-05-09T06:41:20.878Z,100.00
2023-05-09T06:43:49.894Z,99.69
2023-05-09T06:46:18.035Z,100.00
2023-05-09T06:48:45.963Z,99.91
2023-05-09T06:51:13.814Z,99.01
2023-05-09T06:53:41.765Z,98.65
2023-05-09T06:56:09.670Z,98.68
2023-05-09T06:58:38.004Z,98.12
2023-05-09T07:01:06.119Z,98.20
2023-05-09T07:03:34.454Z,98.53
2023-05-09T07:06:02.724Z,98.02
2023-05-09T07:08:30.653Z,97.09
2023-05-09T07:10:59.282Z,96.03
2023-05-09T07:13:27.505Z,94.14
2023-05-09T07:15:55.383Z,94.53
2023-05-09T07:18:23.313Z,94.75
2023-05-09T07:20:51.178Z,95.43
2023-05-09T07:23:19.204Z,95.38
2023-05-09T07:25:47.219Z,95.05
2023-05-09T07:28:15.256Z,94.78
2023-05-09T07:30:45.008Z,94.57
2023-05-09T07:33:12.971Z,94.41
2023-05-09T07:35:40.922Z,94.16
2023-05-09T07:38:08.906Z,93.98
2023-05-09T07:40:38.422Z,93.65
2023-05-09T07:43:06.319Z,93.44
2023-05-09T07:45:34.558Z,93.09
2023-05-09T07:48:02.499Z,92.76
2023-05-09T07:50:30.568Z,92.31
2023-05-09T07:52:58.589Z,92.26
2023-05-09T07:55:26.584Z,91.99
2023-05-09T07:57:54.531Z,91.91
2023-05-09T08:00:25.151Z,91.59
2023-05-09T08:02:53.594Z,91.21
2023-05-09T08:05:21.676Z,91.13
2023-05-09T08:07:49.615Z,90.89
2023-05-09T08:10:17.911Z,90.57
2023-05-09T08:12:45.924Z,90.34
2023-05-09T08:15:14.075Z,89.88
2023-05-09T08:17:42.203Z,89.61
2023-05-09T08:20:10.567Z,89.18
2023-05-09T08:22:40.692Z,88.67
2023-05-09T08:25:09.765Z,88.25
2023-05-09T08:27:37.661Z,87.65
2023-05-09T08:30:06.111Z,87.24
2023-05-09T08:32:33.982Z,87.17
2023-05-09T08:35:02.049Z,86.73
2023-05-09T08:37:30.437Z,86.49
2023-05-09T08:39:58.369Z,86.05
2023-05-09T08:42:27.415Z,85.62
2023-05-09T08:44:55.377Z,85.45
2023-05-09T08:47:23.980Z,85.30
2023-05-09T08:49:52.860Z,84.90
2023-05-09T08:52:22.208Z,84.87
2023-05-09T08:54:50.349Z,84.80
2023-05-09T08:57:18.371Z,84.23
2023-05-09T08:59:46.834Z,84.05
2023-05-09T09:02:16.295Z,84.01
2023-05-09T09:04:46.195Z,83.90
2023-05-09T09:07:16.695Z,83.87
2023-05-09T09:09:47.750Z,83.78
2023-05-09T09:12:17.801Z,83.64
2023-05-09T09:14:54.296Z,83.35
2023-05-09T09:17:29.410Z,83.13
2023-05-09T09:20:05.685Z,82.65
2023-05-09T09:22:35.371Z,82.79
2023-05-09T09:25:03.597Z,82.59
2023-05-09T09:27:33.144Z,82.26
2023-05-09T09:30:12.100Z,81.99
2023-05-09T09:32:43.751Z,81.33
2023-05-09T09:35:13.036Z,81.70
2023-05-09T09:37:41.887Z,81.43
2023-05-09T09:40:12.908Z,81.15
2023-05-09T09:42:48.732Z,80.83
2023-05-09T09:45:18.427Z,80.38
2023-05-09T09:47:51.352Z,80.07
2023-05-09T09:50:21.579Z,79.68
2023-05-09T09:52:57.800Z,79.37
2023-05-09T09:55:26.292Z,78.86
2023-05-09T09:57:54.669Z,78.72
2023-05-09T10:00:30.138Z,78.34
2023-05-09T10:02:59.913Z,77.50
2023-05-09T10:05:28.924Z,77.77
2023-05-09T10:08:01.876Z,77.41
2023-05-09T10:10:35.166Z,76.51
2023-05-09T10:13:05.759Z,76.11
2023-05-09T10:15:49.228Z,75.77
2023-05-09T10:18:27.771Z,75.88
2023-05-09T10:20:58.056Z,75.87
2023-05-09T10:23:26.822Z,75.34
2023-05-09T10:26:19.956Z,74.71
2023-05-09T10:28:50.722Z,74.41
2023-05-09T10:31:28.667Z,74.67
2023-05-09T10:34:00.194Z,74.07
2023-05-09T10:36:29.812Z,74.41
2023-05-09T10:38:57.852Z,73.88
2023-05-09T10:41:27.045Z,73.76
2023-05-09T10:43:58.523Z,73.59
2023-05-09T10:46:28.521Z,73.00
2023-05-09T10:48:57.211Z,72.79
2023-05-09T10:51:26.272Z,72.51
2023-05-09T10:53:55.102Z,71.78
2023-05-09T10:56:28.806Z,71.24
2023-05-09T10:58:57.143Z,70.20
2023-05-09T11:01:38.485Z,70.38
2023-05-09T11:04:15.633Z,69.10
2023-05-09T11:06:47.389Z,68.44
2023-05-09T11:09:36.239Z,68.84
2023-05-09T11:12:07.218Z,67.63
2023-05-09T11:14:42.111Z,67.96
2023-05-09T11:17:15.488Z,66.77
2023-05-09T11:19:49.254Z,66.48
2023-05-09T11:22:22.034Z,65.02
2023-05-09T11:24:52.155Z,65.43
2023-05-09T11:27:25.484Z,65.26
2023-05-09T11:29:55.869Z,64.31
2023-05-09T11:32:48.798Z,63.92
2023-05-09T11:35:22.208Z,63.53
2023-05-09T11:37:56.414Z,62.92
2023-05-09T11:40:24.395Z,63.01
2023-05-09T11:42:58.626Z,62.36
2023-05-09T11:45:33.460Z,61.87
2023-05-09T11:48:05.389Z,61.36
2023-05-09T11:50:33.512Z,61.66
2023-05-09T11:53:01.359Z,61.35
2023-05-09T11:55:33.334Z,60.53
2023-05-09T11:58:01.328Z,60.33
2023-05-09T12:00:29.279Z,59.41
2023-05-09T12:02:57.755Z,59.30
2023-05-09T12:05:25.698Z,59.32
2023-05-09T12:07:53.909Z,59.05
2023-05-09T12:10:23.367Z,58.91
2023-05-09T12:12:52.769Z,58.90
2023-05-09T12:15:22.507Z,58.84
2023-05-09T12:18:04.465Z,58.73
2023-05-09T12:20:47.395Z,58.01
2023-05-09T12:23:16.178Z,57.79
2023-05-09T12:25:59.413Z,58.63
2023-05-09T12:28:28.385Z,58.55
2023-05-09T12:30:57.441Z,58.70
2023-05-09T12:33:26.286Z,58.77
2023-05-09T12:36:12.446Z,58.80
2023-05-09T12:38:40.978Z,58.05
2023-05-09T12:41:26.094Z,58.20
2023-05-09T12:43:59.473Z,57.90
2023-05-09T12:46:27.551Z,57.87
2023-05-09T12:48:55.536Z,57.69
2023-05-09T12:51:24.540Z,57.71
2023-05-09T12:53:52.554Z,57.99
2023-05-09T12:56:24.233Z,57.93
2023-05-09T12:58:55.659Z,57.94
2023-05-09T13:01:30.385Z,57.57
2023-05-09T13:04:06.466Z,57.92
2023-05-09T13:06:35.281Z,58.03
2023-05-09T13:09:07.111Z,58.32
2023-05-09T13:11:35.045Z,57.61
2023-05-09T13:14:05.400Z,57.39
2023-05-09T13:16:33.813Z,56.96
2023-05-09T13:19:03.030Z,56.70
2023-05-09T13:21:31.040Z,56.75
2023-05-09T13:23:58.983Z,56.87
2023-05-09T13:26:28.302Z,57.09
2023-05-09T13:28:56.435Z,56.85
2023-05-09T13:31:24.503Z,56.93
2023-05-09T13:33:52.576Z,56.80
2023-05-09T13:36:20.687Z,56.33
2023-05-09T13:38:49.103Z,56.10
2023-05-09T13:41:21.403Z,56.10
2023-05-09T13:43:49.713Z,55.77
2023-05-09T13:46:17.668Z,55.28
2023-05-09T13:48:45.739Z,55.04
2023-05-09T13:51:13.561Z,54.63
2023-05-09T13:53:41.559Z,54.71
2023-05-09T13:56:10.941Z,54.80
2023-05-09T13:58:38.942Z,54.80
2023-05-09T14:01:06.826Z,54.15
2023-05-09T14:03:34.899Z,53.67
2023-05-09T14:06:02.912Z,53.48
2023-05-09T14:08:30.938Z,53.60
2023-05-09T14:10:58.877Z,53.74
2023-05-09T14:13:26.835Z,53.34
2023-05-09T14:15:55.047Z,53.17
2023-05-09T14:18:22.945Z,53.56
2023-05-09T14:20:50.822Z,53.40
2023-05-09T14:23:18.787Z,53.56
2023-05-09T14:25:46.825Z,53.56
2023-05-09T14:28:15.931Z,53.49
2023-05-09T14:30:44.014Z,53.64
2023-05-09T14:33:12.438Z,53.84
2023-05-09T14:35:41.675Z,53.74
2023-05-09T14:38:09.888Z,53.54
2023-05-09T14:40:37.839Z,53.62
2023-05-09T14:43:05.768Z,53.39
2023-05-09T14:45:34.608Z,53.64
2023-05-09T14:48:04.749Z,53.31
2023-05-09T14:50:32.987Z,53.76
2023-05-09T14:53:02.210Z,53.80
2023-05-09T14:55:32.357Z,53.90
2023-05-09T14:58:00.360Z,53.78
2023-05-09T15:00:29.467Z,54.05
2023-05-09T15:02:57.597Z,54.37
2023-05-09T15:05:25.690Z,54.83
2023-05-09T15:07:53.522Z,55.17
2023-05-09T15:10:21.403Z,55.44
2023-05-09T15:12:49.297Z,55.24
2023-05-09T15:15:22.245Z,54.33
2023-05-09T15:17:50.663Z,55.04
2023-05-09T15:20:19.485Z,54.83
2023-05-09T15:22:51.855Z,55.06
2023-05-09T15:25:20.963Z,55.51
2023-05-09T15:27:51.618Z,55.52
2023-05-09T15:30:19.459Z,55.91
2023-05-09T15:32:48.248Z,56.21
2023-05-09T15:35:17.139Z,56.51
2023-05-09T15:37:45.570Z,56.81
2023-05-09T15:40:14.265Z,56.90
2023-05-09T15:42:42.405Z,57.15
2023-05-09T15:45:10.398Z,57.26
2023-05-09T15:47:38.351Z,57.42
2023-05-09T15:50:06.800Z,57.59
2023-05-09T15:52:34.697Z,58.26
2023-05-09T15:55:02.742Z,59.11
2023-05-09T15:57:30.721Z,59.63
2023-05-09T15:59:58.813Z,59.99
2023-05-09T16:02:26.797Z,60.43
2023-05-09T16:04:54.983Z,60.79
2023-05-09T16:07:23.220Z,61.45
2023-05-09T16:09:51.387Z,61.64
2023-05-09T16:12:19.290Z,61.76
2023-05-09T16:14:47.286Z,61.99
2023-05-09T16:17:15.319Z,62.54
2023-05-09T16:19:43.714Z,62.73
2023-05-09T16:22:11.894Z,62.77
2023-05-09T16:24:39.871Z,63.12
2023-05-09T16:27:07.825Z,63.36
2023-05-09T16:29:35.830Z,63.57
2023-05-09T16:32:04.193Z,63.81
2023-05-09T16:34:32.237Z,63.65
2023-05-09T16:37:00.491Z,63.61
2023-05-09T16:39:29.324Z,64.16
2023-05-09T16:41:57.837Z,65.02
2023-05-09T16:44:27.761Z,65.51
2023-05-09T16:46:55.690Z,65.24
2023-05-09T16:49:23.743Z,65.99
2023-05-09T16:51:51.827Z,67.75
2023-05-09T16:54:19.825Z,68.82
2023-05-09T16:56:47.778Z,69.52
2023-05-09T16:59:16.275Z,70.52
2023-05-09T17:01:44.678Z,72.71
2023-05-09T17:04:12.678Z,74.66
2023-05-09T17:06:40.655Z,75.48
2023-05-09T17:09:08.911Z,76.11
2023-05-09T17:11:36.946Z,77.56
2023-05-09T17:14:04.931Z,77.99
2023-05-09T17:16:33.424Z,78.47
2023-05-09T17:19:02.288Z,78.27
2023-05-09T17:21:30.582Z,78.52
2023-05-09T17:23:58.592Z,79.57
2023-05-09T17:26:27.192Z,79.52
2023-05-09T17:28:55.094Z,80.24
2023-05-09T17:31:23.114Z,79.83
2023-05-09T17:33:51.337Z,80.07
2023-05-09T17:36:19.286Z,79.73
2023-05-09T17:38:47.432Z,79.75
2023-05-09T17:41:15.321Z,80.44
2023-05-09T17:43:43.281Z,81.20
2023-05-09T17:46:11.620Z,80.70
2023-05-09T17:48:40.041Z,80.79
2023-05-09T17:51:08.437Z,81.01
2023-05-09T17:53:36.454Z,81.15
2023-05-09T17:56:04.522Z,83.30
2023-05-09T17:58:33.195Z,81.70
2023-05-09T18:01:01.215Z,81.96
2023-05-09T18:03:30.092Z,82.27
2023-05-09T18:05:58.667Z,82.47
2023-05-09T18:08:26.708Z,83.00
2023-05-09T18:10:57.900Z,84.25
2023-05-09T18:13:25.926Z,83.63
2023-05-09T18:15:56.188Z,83.81
2023-05-09T18:18:24.292Z,84.85
2023-05-09T18:20:52.242Z,84.94
2023-05-09T18:23:20.163Z,85.07
2023-05-09T18:25:48.207Z,85.07
2023-05-09T18:28:16.148Z,85.04
2023-05-09T18:30:44.133Z,85.39
2023-05-09T18:33:12.129Z,85.42
2023-05-09T18:35:39.968Z,85.63
2023-05-09T18:38:08.188Z,85.96
2023-05-09T18:40:38.396Z,86.24
2023-05-09T18:43:07.465Z,86.56
2023-05-09T18:45:35.673Z,87.00
2023-05-09T18:48:04.182Z,87.39
2023-05-09T18:50:32.797Z,87.83
2023-05-09T18:53:00.979Z,88.27
2023-05-09T18:55:29.106Z,89.39
2023-05-09T18:57:57.585Z,90.72
2023-05-09T19:00:25.531Z,91.24
2023-05-09T19:02:53.524Z,91.04
2023-05-09T19:05:21.884Z,91.85
2023-05-09T19:07:51.749Z,91.65
2023-05-09T19:10:20.198Z,92.72
2023-05-09T19:12:48.799Z,92.27
2023-05-09T19:15:17.306Z,92.70
2023-05-09T19:17:45.497Z,93.37
2023-05-09T19:20:14.260Z,93.22
2023-05-09T19:22:46.884Z,93.39
2023-05-09T19:25:14.946Z,93.88
2023-05-09T19:27:42.906Z,94.81
2023-05-09T19:30:11.494Z,94.57
2023-05-09T19:32:39.489Z,94.83
2023-05-09T19:35:08.043Z,95.22
2023-05-09T19:37:37.075Z,95.36
2023-05-09T19:40:06.980Z,95.80
2023-05-09T19:42:35.914Z,96.04
2023-05-09T19:45:04.965Z,96.29
2023-05-09T19:47:33.040Z,96.48
2023-05-09T19:50:01.324Z,96.69
2023-05-09T19:52:31.053Z,97.17
2023-05-09T19:54:59.087Z,97.30
2023-05-09T19:57:27.369Z,97.72
2023-05-09T19:59:56.510Z,97.98
2023-05-09T20:02:24.473Z,98.26
2023-05-09T20:04:52.597Z,99.10
2023-05-09T20:07:20.553Z,99.61
2023-05-09T20:09:48.559Z,99.95
2023-05-09T20:12:17.033Z,100.00
2023-05-09T20:14:45.813Z,100.00
2023-05-09T20:17:13.740Z,100.00
2023-05-09T20:19:41.700Z,100.00
2023-05-09T20:22:10.276Z,100.00
2023-05-09T20:24:38.290Z,100.00
2023-05-09T20:27:06.294Z,100.00
2023-05-09T20:29:34.241Z,100.00
2023-05-09T20:32:02.520Z,100.00
2023-05-09T20:34:30.651Z,100.00
2023-05-09T20:36:58.622Z,100.00
2023-05-09T20:39:26.639Z,100.00
2023-05-09T20:41:56.049Z,100.00
2023-05-09T20:44:23.984Z,100.00
2023-05-09T20:46:52.060Z,100.00
2023-05-09T20:49:20.370Z,100.00
2023-05-09T20:51:48.341Z,100.00
2023-05-09T20:54:16.281Z,100.00
2023-05-09T20:56:44.222Z,100.00
2023-05-09T20:59:12.110Z,100.00
2023-05-09T21:01:41.527Z,100.00
2023-05-09T21:04:09.897Z,100.00
2023-05-09T21:06:38.198Z,100.00
2023-05-09T21:09:10.496Z,100.00
2023-05-09T21:11:39.671Z,100.00
2023-05-09T21:14:09.336Z,100.00
2023-05-09T21:16:37.298Z,100.00
2023-05-09T21:19:06.550Z,100.00
2023-05-09T21:21:34.553Z,100.00
2023-05-09T21:24:04.568Z,100.00
2023-05-09T21:26:32.508Z,100.00
2023-05-09T21:29:00.407Z,100.00
2023-05-09T21:31:28.320Z,100.00
2023-05-09T21:33:56.239Z,100.00
2023-05-09T21:36:24.145Z,100.00
2023-05-09T21:38:52.335Z,100.00
2023-05-09T21:41:20.237Z,100.00
2023-05-09T21:43:48.162Z,100.00
2023-05-09T21:46:16.115Z,100.00
2023-05-09T21:48:43.985Z,100.00
2023-05-09T21:51:13.694Z,100.00
2023-05-09T21:53:41.706Z,100.00
2023-05-09T21:56:09.620Z,100.00
2023-05-09T21:58:37.670Z,100.00
2023-05-09T22:01:05.727Z,100.00
2023-05-09T22:03:33.920Z,100.00
2023-05-09T22:06:02.113Z,100.00
2023-05-09T22:08:29.977Z,100.00
2023-05-09T22:10:57.840Z,100.00
2023-05-09T22:13:25.997Z,100.00
2023-05-09T22:15:54.236Z,100.00
2023-05-09T22:18:22.205Z,100.00
2023-05-09T22:20:50.057Z,100.00
2023-05-09T22:23:17.920Z,100.00
2023-05-09T22:25:45.839Z,100.00
2023-05-09T22:28:13.799Z,100.00
2023-05-09T22:30:41.813Z,100.00
2023-05-09T22:33:09.737Z,100.00
2023-05-09T22:35:37.809Z,100.00
2023-05-09T22:38:05.768Z,100.00
2023-05-09T22:40:34.053Z,100.00
2023-05-09T22:43:01.952Z,100.00
2023-05-09T22:45:29.903Z,100.00
2023-05-09T22:47:57.830Z,100.00
2023-05-09T22:50:25.836Z,100.00
2023-05-09T22:52:53.825Z,100.00
2023-05-09T22:55:21.827Z,100.00
2023-05-09T22:57:49.767Z,100.00
2023-05-09T23:00:18.192Z,100.00
2023-05-09T23:02:46.916Z,100.00
2023-05-09T23:05:14.857Z,100.00
2023-05-09T23:07:42.772Z,100.00
2023-05-09T23:10:11.708Z,100.00
2023-05-09T23:12:39.550Z,100.00
2023-05-09T23:15:08.725Z,100.00
2023-05-09T23:17:36.847Z,100.00
2023-05-09T23:20:05.545Z,100.00
2023-05-09T23:22:33.406Z,100.00
2023-05-09T23:25:02.176Z,100.00
2023-05-09T23:27:32.471Z,100.00
2023-05-09T23:30:00.504Z,100.00
2023-05-09T23:32:28.563Z,100.00
2023-05-09T23:34:56.523Z,100.00
2023-05-09T23:37:24.413Z,100.00
2023-05-09T23:39:52.298Z,100.00
2023-05-09T23:42:20.175Z,100.00
2023-05-09T23:44:48.257Z,100.00
2023-05-09T23:47:16.128Z,100.00
2023-05-09T23:49:44.501Z,100.00
2023-05-09T23:52:12.496Z,100.00
2023-05-09T23:54:41.162Z,100.00
2023-05-09T23:57:09.214Z,100.00
2023-05-09T23:59:37.340Z,100.00
